Time;durP1;ratioP1;P1;durP2;ratioP2;P2;SDS_P1;SDS_P2;PMS_P1;PMS_P2;Temp;Humidity;BMP_temperature;BMP_pressure;BME280_temperature;BME280_humidity;BME280_pressure;Samples;Min_cycle;Max_cycle;Signal;HPM_P1;HPM_P2
2021/03/24 00:00:49;;;;;;;13.13;8.90;;;;;;;;;;4961996;28;20199;-72
2021/03/24 00:03:53;;;;;;;14.43;8.70;;;;;;;;;;4955423;29;20191;-73
2021/03/24 00:06:58;;;;;;;18.10;9.93;;;;;;;;;;4955526;29;20192;-73
2021/03/24 00:10:03;;;;;;;14.63;8.97;;;;;;;;;;4943519;28;20215;-73
2021/03/24 00:13:10;;;;;;;12.93;9.17;;;;;;;;;;4933114;29;20544;-73
2021/03/24 00:16:15;;;;;;;14.97;8.80;;;;;;;;;;4955867;28;20195;-74
2021/03/24 00:19:19;;;;;;;14.03;8.70;;;;;;;;;;4958117;28;20607;-72
2021/03/24 00:22:24;;;;;;;13.90;8.67;;;;;;;;;;4974092;28;20222;-72
2021/03/24 00:25:28;;;;;;;15.20;9.47;;;;;;;;;;4974093;28;20605;-73
2021/03/24 00:28:32;;;;;;;12.47;8.30;;;;;;;;;;4962528;28;20595;-72
2021/03/24 00:31:36;;;;;;;14.00;8.77;;;;;;;;;;4955178;29;21224;-73
2021/03/24 00:34:43;;;;;;;15.87;9.23;;;;;;;;;;4954718;28;20556;-72
2021/03/24 00:37:47;;;;;;;13.10;8.47;;;;;;;;;;4959806;28;20594;-73
2021/03/24 00:40:57;;;;;;;16.53;9.37;;;;;;;;;;4962163;28;20554;-73
2021/03/24 00:44:01;;;;;;;15.23;9.37;;;;;;;;;;4962369;28;20550;-73
2021/03/24 00:47:07;;;;;;;13.07;8.77;;;;;;;;;;4970036;28;20595;-73
2021/03/24 00:50:17;;;;;;;15.57;9.27;;;;;;;;;;4954705;28;20654;-73
2021/03/24 00:53:22;;;;;;;14.17;8.43;;;;;;;;;;4943063;29;20540;-73
2021/03/24 00:56:26;;;;;;;14.60;9.03;;;;;;;;;;4954633;29;20556;-73
2021/03/24 00:59:31;;;;;;;16.77;9.33;;;;;;;;;;4943030;29;20543;-73
2021/03/24 01:02:35;;;;;;;16.17;9.30;;;;;;;;;;4942854;29;20646;-72
2021/03/24 01:05:40;;;;;;;16.43;8.93;;;;;;;;;;4953684;29;20598;-73
2021/03/24 01:08:44;;;;;;;15.73;9.13;;;;;;;;;;4961298;28;20586;-73
2021/03/24 01:11:48;;;;;;;14.73;8.73;;;;;;;;;;4946321;28;20659;-72
2021/03/24 01:14:52;;;;;;;14.87;8.33;;;;;;;;;;4955532;28;20591;-72
2021/03/24 01:17:57;;;;;;;16.43;8.80;;;;;;;;;;4957769;29;20613;-73
2021/03/24 01:21:01;;;;;;;15.70;9.10;;;;;;;;;;4958829;28;20614;-72
2021/03/24 01:24:05;;;;;;;18.40;9.00;;;;;;;;;;4947075;29;20591;-72
2021/03/24 01:27:09;;;;;;;14.07;9.13;;;;;;;;;;4941397;28;20598;-72
2021/03/24 01:30:14;;;;;;;14.73;9.03;;;;;;;;;;4976592;28;20625;-72
2021/03/24 01:33:18;;;;;;;18.77;8.97;;;;;;;;;;4973446;28;20591;-72
2021/03/24 01:36:23;;;;;;;14.50;8.83;;;;;;;;;;4945938;29;21070;-73
2021/03/24 01:39:27;;;;;;;15.77;9.47;;;;;;;;;;4958217;29;20544;-73
2021/03/24 01:42:31;;;;;;;15.30;8.77;;;;;;;;;;4976908;28;20617;-73
2021/03/24 01:45:35;;;;;;;14.73;8.70;;;;;;;;;;4957617;29;20539;-73
2021/03/24 01:48:48;;;;;;;15.20;9.27;;;;;;;;;;4946339;29;20595;-73
2021/03/24 01:52:02;;;;;;;13.80;8.33;;;;;;;;;;4960863;28;20665;-72
2021/03/24 01:55:06;;;;;;;15.53;8.87;;;;;;;;;;4961641;28;20622;-72
2021/03/24 01:58:28;;;;;;;15.87;9.67;;;;;;;;;;4957367;29;20547;-73
2021/03/24 02:01:32;;;;;;;14.33;8.83;;;;;;;;;;4967239;28;20638;-72
2021/03/24 02:04:36;;;;;;;16.10;8.63;;;;;;;;;;4976794;28;20558;-73
2021/03/24 02:07:50;;;;;;;18.37;10.00;;;;;;;;;;4971157;28;20603;-72
2021/03/24 02:11:08;;;;;;;15.40;8.93;;;;;;;;;;4951297;28;20635;-72
2021/03/24 02:14:23;;;;;;;19.87;9.57;;;;;;;;;;4964491;28;20891;-73
2021/03/24 02:17:29;;;;;;;17.03;9.20;;;;;;;;;;4976157;28;21192;-73
2021/03/24 02:20:48;;;;;;;16.53;9.33;;;;;;;;;;4960458;28;20580;-72
2021/03/24 02:24:03;;;;;;;18.17;9.93;;;;;;;;;;4962496;28;20598;-72
2021/03/24 02:27:08;;;;;;;14.83;8.73;;;;;;;;;;4962838;28;20598;-73
2021/03/24 02:30:24;;;;;;;16.03;8.97;;;;;;;;;;4963255;28;20931;-72
2021/03/24 02:33:36;;;;;;;13.80;8.53;;;;;;;;;;4956702;29;20543;-73
2021/03/24 02:36:41;;;;;;;14.13;9.33;;;;;;;;;;4956903;29;20595;-73
2021/03/24 02:39:47;;;;;;;14.23;9.50;;;;;;;;;;4956348;28;21141;-72
2021/03/24 02:42:52;;;;;;;14.03;8.50;;;;;;;;;;4955390;29;20623;-73
2021/03/24 02:45:59;;;;;;;15.03;8.90;;;;;;;;;;4960762;28;20629;-72
2021/03/24 02:49:05;;;;;;;19.47;8.53;;;;;;;;;;4974822;28;20590;-73
2021/03/24 02:52:11;;;;;;;13.40;8.40;;;;;;;;;;4959473;28;20667;-72
2021/03/24 02:55:17;;;;;;;14.20;9.17;;;;;;;;;;4975938;28;20546;-73
2021/03/24 02:58:21;;;;;;;15.60;9.10;;;;;;;;;;4975298;28;20883;-73
2021/03/24 03:01:29;;;;;;;13.63;8.20;;;;;;;;;;4962877;28;20646;-72
2021/03/24 03:04:43;;;;;;;16.33;9.03;;;;;;;;;;4974617;28;20590;-72
2021/03/24 03:08:04;;;;;;;15.20;8.83;;;;;;;;;;4968731;28;21203;-73
2021/03/24 03:11:18;;;;;;;13.33;8.63;;;;;;;;;;4962798;28;21262;-72
2021/03/24 03:14:40;;;;;;;13.93;7.90;;;;;;;;;;4952935;28;20887;-72
2021/03/24 03:17:51;;;;;;;16.00;9.47;;;;;;;;;;4969073;28;20967;-72
2021/03/24 03:21:00;;;;;;;15.80;9.03;;;;;;;;;;4960500;28;20942;-72
2021/03/24 03:24:06;;;;;;;14.83;8.53;;;;;;;;;;4953039;29;20943;-72
2021/03/24 03:27:13;;;;;;;13.87;8.53;;;;;;;;;;4944015;29;20575;-72
2021/03/24 03:30:19;;;;;;;14.27;8.53;;;;;;;;;;4943814;28;20599;-72
2021/03/24 03:33:28;;;;;;;13.87;8.93;;;;;;;;;;4948994;28;20595;-72
2021/03/24 03:36:34;;;;;;;14.63;8.77;;;;;;;;;;4951968;28;21156;-73
2021/03/24 03:39:38;;;;;;;15.13;8.83;;;;;;;;;;4968140;28;20592;-72
2021/03/24 03:42:43;;;;;;;13.67;8.40;;;;;;;;;;4962312;28;20637;-72
2021/03/24 03:45:50;;;;;;;15.13;9.00;;;;;;;;;;4952924;29;20591;-72
2021/03/24 03:48:54;;;;;;;13.80;8.13;;;;;;;;;;4955508;29;20543;-73
2021/03/24 03:52:08;;;;;;;18.53;9.70;;;;;;;;;;4967468;28;21239;-72
2021/03/24 03:55:34;;;;;;;17.47;9.50;;;;;;;;;;4974544;28;20559;-73
2021/03/24 03:59:07;;;;;;;14.07;8.60;;;;;;;;;;4954908;28;20556;-72
2021/03/24 04:02:17;;;;;;;13.13;8.33;;;;;;;;;;4973673;28;20633;-73
2021/03/24 04:05:32;;;;;;;16.00;9.33;;;;;;;;;;4951446;28;20594;-73
2021/03/24 04:08:38;;;;;;;20.17;8.97;;;;;;;;;;4974574;28;21066;-73
2021/03/24 04:11:44;;;;;;;14.33;8.67;;;;;;;;;;4956059;28;20654;-72
2021/03/24 04:14:51;;;;;;;15.93;9.60;;;;;;;;;;4957742;28;20599;-72
2021/03/24 04:18:03;;;;;;;16.33;9.67;;;;;;;;;;4962530;28;20614;-73
2021/03/24 04:21:10;;;;;;;15.53;8.90;;;;;;;;;;4961935;28;20651;-72
2021/03/24 04:24:19;;;;;;;14.53;8.73;;;;;;;;;;4974209;28;20586;-73
2021/03/24 04:27:27;;;;;;;17.73;9.97;;;;;;;;;;4974946;28;20547;-73
2021/03/24 04:30:39;;;;;;;12.63;9.30;;;;;;;;;;4957067;28;20623;-72
2021/03/24 04:33:43;;;;;;;14.10;9.07;;;;;;;;;;4969347;28;20615;-72
2021/03/24 04:37:29;;;;;;;14.77;9.23;;;;;;;;;;4951226;28;20594;-72
2021/03/24 04:40:47;;;;;;;15.93;9.17;;;;;;;;;;4964850;28;21157;-72
2021/03/24 04:44:00;;;;;;;16.33;9.57;;;;;;;;;;4956492;28;20591;-72
2021/03/24 04:47:12;;;;;;;16.00;9.37;;;;;;;;;;4950892;28;21157;-73
2021/03/24 04:50:30;;;;;;;17.53;9.07;;;;;;;;;;4973583;28;20555;-72
2021/03/24 04:53:49;;;;;;;15.63;9.33;;;;;;;;;;4958475;29;20536;-73
2021/03/24 04:56:58;;;;;;;20.77;10.03;;;;;;;;;;4964978;28;20594;-72
2021/03/24 05:00:25;;;;;;;15.17;9.83;;;;;;;;;;4965540;28;20597;-73
2021/03/24 05:03:34;;;;;;;16.80;9.80;;;;;;;;;;4957419;29;20590;-73
2021/03/24 05:06:46;;;;;;;16.37;9.13;;;;;;;;;;4947069;29;20544;-73
2021/03/24 05:09:50;;;;;;;17.57;9.27;;;;;;;;;;4941454;28;20945;-72
2021/03/24 05:13:27;;;;;;;18.73;9.87;;;;;;;;;;4945154;28;20666;-72
2021/03/24 05:16:35;;;;;;;18.33;10.10;;;;;;;;;;4976927;28;20614;-73
2021/03/24 05:19:40;;;;;;;18.17;10.00;;;;;;;;;;4965457;28;21123;-73
2021/03/24 05:22:45;;;;;;;17.33;9.70;;;;;;;;;;4954109;28;20658;-72
2021/03/24 05:26:30;;;;;;;19.70;11.23;;;;;;;;;;4960928;28;20599;-73
2021/03/24 05:29:39;;;;;;;15.83;10.10;;;;;;;;;;4950126;28;20593;-73
2021/03/24 05:32:46;;;;;;;15.77;10.60;;;;;;;;;;4948702;28;20678;-73
2021/03/24 05:35:57;;;;;;;19.17;9.97;;;;;;;;;;4961597;28;20705;-73
2021/03/24 05:39:13;;;;;;;17.27;10.40;;;;;;;;;;4977381;28;20922;-74
2021/03/24 05:42:23;;;;;;;15.67;10.50;;;;;;;;;;4955567;28;20653;-73
2021/03/24 05:45:56;;;;;;;20.83;10.73;;;;;;;;;;4934871;29;20547;-74
2021/03/24 05:49:13;;;;;;;15.47;9.57;;;;;;;;;;4952842;28;20598;-73
2021/03/24 05:52:33;;;;;;;15.77;9.70;;;;;;;;;;4948023;28;20667;-73
2021/03/24 05:55:47;;;;;;;19.30;9.83;;;;;;;;;;4934621;29;20555;-74
2021/03/24 05:59:21;;;;;;;14.23;9.47;;;;;;;;;;4961492;28;20602;-73
2021/03/24 06:02:37;;;;;;;14.97;9.57;;;;;;;;;;4969730;28;20639;-73
2021/03/24 06:06:05;;;;;;;18.87;9.77;;;;;;;;;;4953958;29;20943;-73
2021/03/24 06:09:24;;;;;;;21.60;10.07;;;;;;;;;;4951523;28;20594;-72
2021/03/24 06:13:27;;;;;;;18.80;10.23;;;;;;;;;;4956896;29;20667;-73
2021/03/24 06:16:55;;;;;;;14.57;9.07;;;;;;;;;;4942211;28;20634;-73
2021/03/24 06:20:13;;;;;;;16.37;10.40;;;;;;;;;;4976575;28;21076;-73
2021/03/24 06:23:23;;;;;;;15.90;10.23;;;;;;;;;;4967126;28;20611;-73
2021/03/24 06:26:37;;;;;;;15.03;10.07;;;;;;;;;;4976035;28;20590;-73
2021/03/24 06:29:47;;;;;;;16.33;10.07;;;;;;;;;;4957068;29;20544;-73
2021/03/24 06:33:10;;;;;;;14.97;10.33;;;;;;;;;;4959626;28;21017;-72
2021/03/24 06:36:31;;;;;;;33.53;19.53;;;;;;;;;;4963580;28;20602;-71
2021/03/24 06:40:25;;;;;;;39.87;23.50;;;;;;;;;;4972411;28;20611;-72
2021/03/24 06:43:59;;;;;;;35.33;21.27;;;;;;;;;;4944821;29;20596;-73
2021/03/24 06:47:15;;;;;;;28.83;15.07;;;;;;;;;;4944468;29;20550;-73
2021/03/24 06:50:47;;;;;;;23.63;13.87;;;;;;;;;;4956213;29;20567;-73
2021/03/24 06:53:54;;;;;;;21.57;13.97;;;;;;;;;;4944310;29;20539;-73
2021/03/24 06:57:16;;;;;;;26.93;13.13;;;;;;;;;;4969032;28;20945;-73
2021/03/24 07:00:32;;;;;;;19.80;12.87;;;;;;;;;;4963686;28;20550;-73
2021/03/24 07:04:14;;;;;;;24.33;13.17;;;;;;;;;;4955911;29;20543;-73
2021/03/24 07:07:51;;;;;;;23.23;12.87;;;;;;;;;;4944176;28;20584;-73
2021/03/24 07:11:20;;;;;;;19.93;12.50;;;;;;;;;;4975072;28;20198;-73
2021/03/24 07:14:54;;;;;;;18.40;12.70;;;;;;;;;;4963283;28;20201;-73
2021/03/24 07:18:22;;;;;;;18.67;12.33;;;;;;;;;;4975031;28;20218;-73
2021/03/24 07:22:00;;;;;;;16.07;11.03;;;;;;;;;;4975410;28;20222;-73
2021/03/24 07:25:27;;;;;;;19.87;12.07;;;;;;;;;;4961881;28;20689;-73
2021/03/24 07:29:01;;;;;;;22.30;13.73;;;;;;;;;;4974701;28;20211;-73
2021/03/24 07:32:11;;;;;;;23.03;12.80;;;;;;;;;;4974724;28;20230;-72
2021/03/24 07:35:34;;;;;;;21.47;13.27;;;;;;;;;;4975197;28;20201;-73
2021/03/24 07:39:07;;;;;;;20.67;12.60;;;;;;;;;;4975189;28;20187;-73
2021/03/24 07:42:36;;;;;;;20.13;12.43;;;;;;;;;;4974657;28;20231;-73
2021/03/24 07:45:54;;;;;;;23.30;12.33;;;;;;;;;;4963244;28;20194;-72
2021/03/24 07:49:05;;;;;;;19.00;12.30;;;;;;;;;;4951989;28;20546;-72
2021/03/24 07:52:21;;;;;;;21.77;12.97;;;;;;;;;;4962666;28;20253;-73
2021/03/24 07:55:41;;;;;;;18.00;12.33;;;;;;;;;;4962686;28;20186;-72
2021/03/24 07:59:07;;;;;;;21.20;13.20;;;;;;;;;;4963040;28;20650;-73
2021/03/24 08:02:34;;;;;;;21.60;12.53;;;;;;;;;;4974702;28;20230;-72
2021/03/24 08:05:56;;;;;;;23.37;13.73;;;;;;;;;;4959316;28;20219;-72
2021/03/24 08:09:27;;;;;;;22.47;13.10;;;;;;;;;;4963037;28;20665;-73
2021/03/24 08:13:09;;;;;;;22.40;14.47;;;;;;;;;;4974427;28;20238;-73
2021/03/24 08:16:25;;;;;;;23.77;13.63;;;;;;;;;;4974278;28;20213;-73
2021/03/24 08:19:51;;;;;;;21.80;13.07;;;;;;;;;;4951744;28;20689;-73
2021/03/24 08:23:14;;;;;;;20.77;13.77;;;;;;;;;;4962512;28;20238;-73
2021/03/24 08:26:18;;;;;;;23.80;14.80;;;;;;;;;;4966251;28;20673;-72
2021/03/24 08:29:47;;;;;;;81.17;39.67;;;;;;;;;;4966162;28;20206;-72
2021/03/24 08:33:26;;;;;;;65.50;34.27;;;;;;;;;;4963930;28;20245;-72
2021/03/24 08:36:49;;;;;;;30.43;17.40;;;;;;;;;;4937660;29;20210;-72
2021/03/24 08:40:20;;;;;;;18.13;12.50;;;;;;;;;;4958027;29;20272;-73
2021/03/24 08:43:37;;;;;;;20.33;12.90;;;;;;;;;;4959064;29;20186;-73
2021/03/24 08:46:54;;;;;;;17.20;11.87;;;;;;;;;;4958706;29;20206;-73
2021/03/24 08:50:01;;;;;;;19.97;11.80;;;;;;;;;;4958643;29;20199;-73
2021/03/24 08:53:29;;;;;;;18.63;11.63;;;;;;;;;;4957608;29;20240;-73
2021/03/24 08:56:45;;;;;;;17.60;11.77;;;;;;;;;;4958251;29;20198;-72
2021/03/24 08:59:52;;;;;;;18.60;13.33;;;;;;;;;;4961038;28;20219;-72
2021/03/24 09:03:31;;;;;;;18.27;12.20;;;;;;;;;;4967658;28;20229;-72
2021/03/24 09:06:46;;;;;;;16.73;11.90;;;;;;;;;;4958648;29;20550;-73
2021/03/24 09:10:26;;;;;;;17.57;12.17;;;;;;;;;;4957897;29;20215;-72
2021/03/24 09:13:51;;;;;;;18.30;12.23;;;;;;;;;;4958456;29;20223;-72
2021/03/24 09:17:05;;;;;;;18.07;11.47;;;;;;;;;;4958062;29;20689;-72
2021/03/24 09:20:29;;;;;;;18.30;12.40;;;;;;;;;;4958238;29;20198;-72
2021/03/24 09:23:55;;;;;;;17.97;12.27;;;;;;;;;;4969423;28;20201;-72
2021/03/24 09:27:21;;;;;;;18.47;12.57;;;;;;;;;;4958414;28;20194;-72
2021/03/24 09:31:04;;;;;;;18.73;12.30;;;;;;;;;;4964556;28;20214;-72
2021/03/24 09:34:23;;;;;;;16.23;12.13;;;;;;;;;;4974685;28;20230;-72
2021/03/24 09:37:35;;;;;;;17.10;11.97;;;;;;;;;;4957507;29;20203;-72
2021/03/24 09:40:42;;;;;;;18.90;12.80;;;;;;;;;;4971826;28;20207;-72
2021/03/24 09:43:58;;;;;;;20.00;12.60;;;;;;;;;;4953804;28;20210;-72
2021/03/24 09:47:18;;;;;;;17.97;12.70;;;;;;;;;;4963948;28;20214;-72
2021/03/24 09:50:37;;;;;;;16.57;11.90;;;;;;;;;;4975957;28;20586;-72
2021/03/24 09:53:42;;;;;;;17.30;11.57;;;;;;;;;;4956852;29;20575;-72
2021/03/24 09:57:15;;;;;;;16.87;11.60;;;;;;;;;;4958495;28;20207;-72
2021/03/24 10:00:20;;;;;;;18.07;13.03;;;;;;;;;;4973369;28;20213;-71
2021/03/24 10:03:43;;;;;;;17.30;12.83;;;;;;;;;;4964684;28;20198;-72
2021/03/24 10:07:16;;;;;;;26.83;18.83;;;;;;;;;;4945457;29;20215;-72
2021/03/24 10:10:27;;;;;;;36.07;24.83;;;;;;;;;;4947735;28;20214;-72
2021/03/24 10:13:39;;;;;;;18.43;12.93;;;;;;;;;;4970963;28;20229;-73
2021/03/24 10:16:47;;;;;;;19.50;12.40;;;;;;;;;;4944874;29;20222;-73
2021/03/24 10:19:59;;;;;;;17.20;12.10;;;;;;;;;;4957987;28;20210;-73
2021/03/24 10:23:20;;;;;;;70.57;14.10;;;;;;;;;;4971151;28;20649;-72
2021/03/24 10:26:49;;;;;;;20.77;11.43;;;;;;;;;;4965952;28;20238;-72
2021/03/24 10:29:56;;;;;;;28.23;11.57;;;;;;;;;;4962201;28;20211;-72
2021/03/24 10:33:30;;;;;;;18.87;12.27;;;;;;;;;;4949408;28;20237;-71
2021/03/24 10:36:52;;;;;;;22.57;11.23;;;;;;;;;;4969261;28;20210;-70
2021/03/24 10:40:15;;;;;;;16.77;11.20;;;;;;;;;;4975052;28;20210;-69
2021/03/24 10:43:40;;;;;;;17.33;11.00;;;;;;;;;;4958361;28;20207;-70
2021/03/24 10:47:11;;;;;;;17.07;12.20;;;;;;;;;;4964453;28;20226;-70
2021/03/24 10:50:43;;;;;;;18.83;11.80;;;;;;;;;;4970775;28;20210;-75
2021/03/24 10:54:14;;;;;;;17.20;11.03;;;;;;;;;;4962478;28;20230;-75
2021/03/24 10:57:48;;;;;;;15.23;11.33;;;;;;;;;;4933971;29;20563;-75
2021/03/24 11:01:06;;;;;;;11.87;9.20;;;;;;;;;;4967801;28;20198;-75
2021/03/24 11:04:41;;;;;;;17.30;11.50;;;;;;;;;;4961556;28;20203;-74
2021/03/24 11:07:53;;;;;;;16.97;11.13;;;;;;;;;;4959133;28;20214;-74
2021/03/24 11:11:41;;;;;;;14.10;10.73;;;;;;;;;;5111205;27;20770;-75
2021/03/24 11:15:03;;;;;;;16.17;11.50;;;;;;;;;;5100238;28;20206;-71
2021/03/24 11:18:12;;;;;;;15.97;9.90;;;;;;;;;;5107301;28;20194;-72
2021/03/24 11:21:22;;;;;;;17.07;10.47;;;;;;;;;;5111022;28;20205;-72
2021/03/24 11:24:50;;;;;;;17.17;10.60;;;;;;;;;;5093031;22;20235;-72
2021/03/24 11:28:05;;;;;;;16.27;10.23;;;;;;;;;;5044004;28;20195;-74
2021/03/24 11:31:15;;;;;;;16.80;10.13;;;;;;;;;;5073532;28;20202;-73
2021/03/24 11:34:36;;;;;;;13.63;9.90;;;;;;;;;;5078257;28;20192;-73
2021/03/24 11:37:56;;;;;;;17.63;8.77;;;;;;;;;;5084902;28;20191;-73
2021/03/24 11:41:14;;;;;;;13.73;9.57;;;;;;;;;;5057586;28;20183;-73
2021/03/24 11:44:21;;;;;;;15.00;11.30;;;;;;;;;;5070110;28;20180;-72
2021/03/24 11:47:40;;;;;;;16.27;10.67;;;;;;;;;;5076268;28;20198;-73
2021/03/24 11:51:12;;;;;;;13.00;9.70;;;;;;;;;;5086280;28;20208;-73
2021/03/24 11:54:36;;;;;;;13.10;9.67;;;;;;;;;;5057977;28;20539;-73
2021/03/24 11:57:52;;;;;;;14.73;10.63;;;;;;;;;;5069823;28;20619;-72
2021/03/24 12:00:59;;;;;;;14.33;9.93;;;;;;;;;;5069409;28;20519;-72
2021/03/24 12:04:27;;;;;;;15.23;11.07;;;;;;;;;;5069667;28;20184;-72
2021/03/24 12:07:42;;;;;;;14.83;10.40;;;;;;;;;;5069621;28;20179;-72
2021/03/24 12:11:09;;;;;;;15.43;10.03;;;;;;;;;;5069051;28;20220;-72
2021/03/24 12:14:21;;;;;;;13.20;9.47;;;;;;;;;;5069487;28;20519;-72
2021/03/24 12:17:32;;;;;;;13.63;9.57;;;;;;;;;;5057205;28;20184;-72
2021/03/24 12:20:59;;;;;;;14.43;9.70;;;;;;;;;;5066157;28;20504;-72
2021/03/24 12:24:23;;;;;;;13.93;9.37;;;;;;;;;;5055851;28;20216;-72
2021/03/24 12:27:34;;;;;;;21.63;9.00;;;;;;;;;;5055781;28;20184;-72
2021/03/24 12:30:46;;;;;;;12.53;8.43;;;;;;;;;;5055898;28;20654;-72
2021/03/24 12:34:01;;;;;;;13.83;9.47;;;;;;;;;;5055696;28;20635;-72
2021/03/24 12:37:06;;;;;;;12.53;8.37;;;;;;;;;;5055533;28;20200;-72
2021/03/24 12:40:14;;;;;;;12.27;7.77;;;;;;;;;;5043079;28;20192;-72
2021/03/24 12:43:21;;;;;;;11.07;8.40;;;;;;;;;;5055671;28;20177;-72
2021/03/24 12:46:25;;;;;;;11.63;8.20;;;;;;;;;;5055650;28;20180;-72
2021/03/24 12:49:32;;;;;;;15.47;8.60;;;;;;;;;;5054479;28;20516;-72
2021/03/24 12:52:40;;;;;;;12.13;8.23;;;;;;;;;;5042840;28;20216;-72
2021/03/24 12:55:44;;;;;;;15.03;8.10;;;;;;;;;;5043105;28;20192;-72
2021/03/24 12:58:55;;;;;;;11.90;8.23;;;;;;;;;;5055679;28;20179;-72
2021/03/24 13:02:20;;;;;;;15.30;8.50;;;;;;;;;;5055347;28;20706;-72
2021/03/24 13:05:34;;;;;;;10.00;7.43;;;;;;;;;;5042859;28;20217;-73
2021/03/24 13:08:56;;;;;;;9.07;7.00;;;;;;;;;;5055284;28;20189;-72
2021/03/24 13:12:19;;;;;;;10.87;7.93;;;;;;;;;;5055014;28;20216;-72
2021/03/24 13:15:31;;;;;;;10.50;7.27;;;;;;;;;;5042898;28;20181;-73
2021/03/24 13:18:55;;;;;;;11.20;7.97;;;;;;;;;;5055363;28;20185;-73
2021/03/24 13:22:02;;;;;;;10.10;7.87;;;;;;;;;;5042735;28;20216;-72
2021/03/24 13:25:23;;;;;;;12.47;7.90;;;;;;;;;;5031887;28;20208;-73
2021/03/24 13:28:48;;;;;;;14.93;7.70;;;;;;;;;;5067556;28;20188;-73
2021/03/24 13:32:01;;;;;;;13.30;7.37;;;;;;;;;;5055476;28;20232;-73
2021/03/24 13:35:15;;;;;;;10.93;7.97;;;;;;;;;;5071797;28;20191;-71
2021/03/24 13:38:32;;;;;;;12.47;8.77;;;;;;;;;;5054514;28;20528;-73
2021/03/24 13:41:43;;;;;;;16.40;8.57;;;;;;;;;;5043103;28;20220;-73
2021/03/24 13:44:54;;;;;;;10.53;7.80;;;;;;;;;;5054312;28;20185;-73
2021/03/24 13:48:12;;;;;;;10.93;8.13;;;;;;;;;;5068985;28;20519;-73
2021/03/24 13:51:39;;;;;;;24.47;8.77;;;;;;;;;;5063246;28;20235;-72
2021/03/24 13:54:59;;;;;;;15.07;7.97;;;;;;;;;;5041887;28;20180;-73
2021/03/24 13:58:41;;;;;;;15.80;8.87;;;;;;;;;;5068324;28;20195;-73
2021/03/24 14:02:13;;;;;;;11.03;8.33;;;;;;;;;;5064758;28;20220;-73
2021/03/24 14:05:37;;;;;;;17.97;7.90;;;;;;;;;;5074292;28;20507;-75
2021/03/24 14:09:04;;;;;;;13.20;8.80;;;;;;;;;;5061695;28;20189;-76
2021/03/24 14:12:36;;;;;;;12.73;8.87;;;;;;;;;;5017508;28;20208;-73
2021/03/24 14:15:46;;;;;;;10.57;8.10;;;;;;;;;;5030490;28;20176;-74
2021/03/24 14:19:15;;;;;;;11.77;7.77;;;;;;;;;;5053595;28;20176;-75
2021/03/24 14:22:39;;;;;;;10.83;7.57;;;;;;;;;;5053834;28;20211;-74
2021/03/24 14:25:43;;;;;;;11.73;8.70;;;;;;;;;;5053678;28;20188;-75
2021/03/24 14:29:01;;;;;;;10.77;8.17;;;;;;;;;;5053752;28;20520;-75
2021/03/24 14:32:35;;;;;;;13.50;8.30;;;;;;;;;;5053363;28;20576;-75
2021/03/24 14:35:50;;;;;;;12.27;8.47;;;;;;;;;;5041463;28;20180;-74
2021/03/24 14:39:25;;;;;;;11.00;7.57;;;;;;;;;;5053606;28;20180;-76
2021/03/24 14:42:50;;;;;;;13.00;8.00;;;;;;;;;;5053508;28;20211;-75
2021/03/24 14:46:19;;;;;;;11.20;7.83;;;;;;;;;;5041247;28;20624;-76
2021/03/24 14:49:40;;;;;;;23.23;8.63;;;;;;;;;;5033319;28;20671;-74
2021/03/24 14:52:47;;;;;;;12.67;8.20;;;;;;;;;;5040830;28;20690;-75
2021/03/24 14:55:58;;;;;;;13.43;8.00;;;;;;;;;;5041017;28;20180;-75
2021/03/24 14:59:34;;;;;;;11.10;8.57;;;;;;;;;;5041136;28;20184;-75
2021/03/24 15:02:38;;;;;;;13.13;8.80;;;;;;;;;;5053258;28;20215;-75
2021/03/24 15:05:45;;;;;;;15.20;9.50;;;;;;;;;;5040780;28;20176;-75
2021/03/24 15:08:55;;;;;;;14.40;8.60;;;;;;;;;;5053264;28;20535;-75
2021/03/24 15:12:30;;;;;;;14.63;8.50;;;;;;;;;;5052990;28;20231;-75
2021/03/24 15:16:12;;;;;;;13.60;7.67;;;;;;;;;;5041005;28;20188;-74
2021/03/24 15:19:47;;;;;;;14.13;7.80;;;;;;;;;;5020588;28;20192;-75
2021/03/24 15:22:51;;;;;;;15.37;9.00;;;;;;;;;;5053232;28;20208;-75
2021/03/24 15:26:01;;;;;;;13.50;7.33;;;;;;;;;;5052920;28;20183;-75
2021/03/24 15:29:26;;;;;;;16.63;9.30;;;;;;;;;;5040837;28;20180;-75
2021/03/24 15:32:47;;;;;;;34.67;19.23;;;;;;;;;;5040456;28;20209;-74
2021/03/24 15:36:15;;;;;;;10.93;8.17;;;;;;;;;;5029389;28;20189;-75
2021/03/24 15:39:50;;;;;;;40.27;19.73;;;;;;;;;;5052954;28;20618;-75
2021/03/24 15:43:15;;;;;;;22.83;13.60;;;;;;;;;;5052649;28;20225;-75
2021/03/24 15:46:28;;;;;;;13.40;7.83;;;;;;;;;;5041784;28;20195;-74
2021/03/24 15:49:34;;;;;;;15.70;7.83;;;;;;;;;;5057122;28;20187;-75
2021/03/24 15:52:39;;;;;;;13.10;8.20;;;;;;;;;;5080395;28;20210;-75
2021/03/24 15:55:48;;;;;;;14.87;7.80;;;;;;;;;;5093132;28;20179;-75
2021/03/24 15:59:13;;;;;;;16.13;7.57;;;;;;;;;;5084337;28;20175;-75
2021/03/24 16:02:34;;;;;;;12.07;8.07;;;;;;;;;;5043953;28;20216;-75
2021/03/24 16:06:03;;;;;;;11.47;7.43;;;;;;;;;;5056197;28;20185;-74
2021/03/24 16:09:36;;;;;;;15.30;6.93;;;;;;;;;;5037029;28;20196;-75
2021/03/24 16:13:02;;;;;;;10.53;6.37;;;;;;;;;;5066784;28;20563;-75
2021/03/24 16:16:15;;;;;;;11.40;5.90;;;;;;;;;;5063714;28;20176;-75
2021/03/24 16:19:30;;;;;;;8.33;5.63;;;;;;;;;;5056475;28;20185;-75
2021/03/24 16:23:03;;;;;;;10.23;5.90;;;;;;;;;;5043562;28;20212;-75
2021/03/24 16:26:33;;;;;;;10.30;6.00;;;;;;;;;;5055880;28;20176;-75
2021/03/24 16:29:50;;;;;;;9.83;6.50;;;;;;;;;;5055677;28;20180;-74
2021/03/24 16:33:30;;;;;;;11.17;6.60;;;;;;;;;;5055618;28;20212;-75
2021/03/24 16:37:13;;;;;;;15.53;6.27;;;;;;;;;;5035456;28;20650;-74
2021/03/24 16:40:32;;;;;;;10.90;6.93;;;;;;;;;;5055752;28;20615;-75
2021/03/24 16:44:12;;;;;;;10.17;6.30;;;;;;;;;;5055467;28;20535;-75
2021/03/24 16:47:38;;;;;;;13.73;6.53;;;;;;;;;;5055678;28;20512;-75
2021/03/24 16:50:50;;;;;;;9.77;6.07;;;;;;;;;;5055595;28;20209;-75
2021/03/24 16:54:13;;;;;;;17.70;6.83;;;;;;;;;;5043355;28;20188;-75
2021/03/24 16:57:40;;;;;;;24.67;6.13;;;;;;;;;;5055535;28;20184;-75
2021/03/24 17:01:06;;;;;;;17.73;6.77;;;;;;;;;;5054653;28;20180;-75
2021/03/24 17:04:18;;;;;;;11.17;6.30;;;;;;;;;;5043093;28;20511;-75
2021/03/24 17:07:29;;;;;;;19.40;6.80;;;;;;;;;;5055316;28;20184;-75
2021/03/24 17:11:01;;;;;;;11.83;7.03;;;;;;;;;;5042988;28;20176;-75
2021/03/24 17:14:40;;;;;;;13.23;6.87;;;;;;;;;;5031609;28;20184;-75
2021/03/24 17:18:16;;;;;;;12.93;8.27;;;;;;;;;;5042881;28;20184;-75
2021/03/24 17:21:52;;;;;;;16.13;9.80;;;;;;;;;;5053036;28;20211;-74
2021/03/24 17:25:19;;;;;;;18.83;9.67;;;;;;;;;;5086460;23;20692;-70
2021/03/24 17:28:29;;;;;;;22.27;12.00;;;;;;;;;;5088678;28;20183;-70
2021/03/24 17:31:33;;;;;;;13.73;9.27;;;;;;;;;;5095244;28;20226;-70
2021/03/24 17:34:42;;;;;;;19.30;9.00;;;;;;;;;;5056083;28;20180;-69
2021/03/24 17:38:13;;;;;;;19.47;8.57;;;;;;;;;;5044389;28;20184;-70
2021/03/24 17:41:22;;;;;;;17.70;6.70;;;;;;;;;;5035496;28;20211;-70
2021/03/24 17:44:35;;;;;;;16.23;6.17;;;;;;;;;;5051413;28;20199;-70
2021/03/24 17:47:54;;;;;;;8.93;6.00;;;;;;;;;;5073638;28;20183;-70
2021/03/24 17:51:23;;;;;;;24.33;6.40;;;;;;;;;;5062208;28;20211;-70
2021/03/24 17:54:54;;;;;;;13.77;7.63;;;;;;;;;;5051107;28;20645;-70
2021/03/24 17:58:07;;;;;;;15.60;7.67;;;;;;;;;;5073584;28;20187;-70
2021/03/24 18:01:30;;;;;;;10.87;6.27;;;;;;;;;;5059248;28;20570;-69
2021/03/24 18:04:55;;;;;;;14.10;6.23;;;;;;;;;;5042944;28;20188;-69
2021/03/24 18:08:19;;;;;;;10.67;6.23;;;;;;;;;;5062121;28;20183;-70
2021/03/24 18:11:29;;;;;;;16.83;6.07;;;;;;;;;;5063619;28;20223;-73
2021/03/24 18:14:33;;;;;;;14.07;6.10;;;;;;;;;;5065052;28;20199;-72
2021/03/24 18:17:45;;;;;;;10.43;5.97;;;;;;;;;;5073513;28;20187;-71
2021/03/24 18:21:12;;;;;;;12.73;7.53;;;;;;;;;;5073487;28;20527;-72
2021/03/24 18:24:16;;;;;;;13.57;6.70;;;;;;;;;;5061130;28;20215;-72
2021/03/24 18:27:23;;;;;;;10.47;7.10;;;;;;;;;;5063993;28;20203;-73
2021/03/24 18:30:33;;;;;;;13.20;7.10;;;;;;;;;;5073749;28;20184;-73
2021/03/24 18:33:37;;;;;;;11.83;6.33;;;;;;;;;;5073107;28;20187;-72
2021/03/24 18:37:00;;;;;;;16.57;8.07;;;;;;;;;;5053906;28;20180;-72
2021/03/24 18:40:08;;;;;;;12.87;6.63;;;;;;;;;;5029745;28;20176;-73
2021/03/24 18:43:16;;;;;;;13.37;6.57;;;;;;;;;;5065548;28;20306;-72
2021/03/24 18:46:21;;;;;;;13.93;6.77;;;;;;;;;;5072936;28;20199;-71
2021/03/24 18:49:31;;;;;;;12.10;6.80;;;;;;;;;;5072577;28;20195;-72
2021/03/24 18:52:42;;;;;;;13.30;7.50;;;;;;;;;;5072871;28;20219;-71
2021/03/24 18:56:06;;;;;;;12.10;6.90;;;;;;;;;;5072694;28;20195;-71
2021/03/24 18:59:29;;;;;;;10.53;6.57;;;;;;;;;;5073285;28;20180;-72
2021/03/24 19:02:36;;;;;;;13.80;6.43;;;;;;;;;;5072803;28;20211;-72
2021/03/24 19:05:42;;;;;;;12.30;7.10;;;;;;;;;;5072716;28;20187;-72
2021/03/24 19:09:06;;;;;;;16.67;7.27;;;;;;;;;;5070966;28;20199;-71
2021/03/24 19:12:32;;;;;;;16.53;7.13;;;;;;;;;;5060436;28;20227;-72
2021/03/24 19:15:43;;;;;;;13.50;7.33;;;;;;;;;;5059796;28;20203;-71
2021/03/24 19:19:12;;;;;;;13.87;7.23;;;;;;;;;;5067366;28;20192;-71